Time;durP1;ratioP1;P1;durP2;ratioP2;P2;SDS_P1;SDS_P2;PMS_P1;PMS_P2;Temp;Humidity;BMP_temperature;BMP_pressure;BME280_temperature;BME280_humidity;BME280_pressure;Samples;Min_cycle;Max_cycle;Signal;HPM_P1;HPM_P2
2023/08/12 00:00:11;;;;;;;7.55;4.68;;;;;;;17.62;nan;101099.78;5014978;28;20030;-61
2023/08/12 00:02:41;;;;;;;9.02;4.70;;;;;;;17.64;nan;101102.19;5012948;28;20045;-62
2023/08/12 00:05:07;;;;;;;10.27;5.70;;;;;;;17.64;nan;101110.16;5016427;28;20029;-65
2023/08/12 00:07:34;;;;;;;6.72;4.55;;;;;;;17.62;nan;101109.63;5014739;28;20028;-62
2023/08/12 00:10:03;;;;;;;5.93;4.68;;;;;;;17.60;nan;101106.44;5015832;28;20068;-62
2023/08/12 00:12:29;;;;;;;9.93;4.90;;;;;;;17.56;nan;101102.66;5017337;28;20050;-62
2023/08/12 00:14:54;;;;;;;8.05;4.88;;;;;;;17.53;nan;101101.31;5020074;28;20053;-62
2023/08/12 00:17:20;;;;;;;8.27;5.32;;;;;;;17.50;nan;101103.66;5018000;28;20026;-65
2023/08/12 00:19:45;;;;;;;9.82;4.90;;;;;;;17.47;nan;101102.31;5022750;28;20530;-62
2023/08/12 00:22:10;;;;;;;9.00;5.60;;;;;;;17.39;nan;101098.25;5018003;28;20057;-69
2023/08/12 00:24:37;;;;;;;7.40;4.50;;;;;;;17.38;nan;101098.50;5018914;28;20044;-64
2023/08/12 00:27:02;;;;;;;6.95;4.90;;;;;;;17.26;nan;101085.34;5018202;28;20061;-61
2023/08/12 00:29:27;;;;;;;7.78;4.75;;;;;;;17.31;nan;101105.88;5018654;28;20063;-62
2023/08/12 00:31:53;;;;;;;6.80;4.38;;;;;;;17.28;nan;101101.06;5017760;28;20079;-63
2023/08/12 00:34:18;;;;;;;7.57;4.60;;;;;;;17.16;nan;101091.38;5017369;28;20021;-61
2023/08/12 00:36:44;;;;;;;6.60;4.50;;;;;;;17.13;nan;101093.75;5017813;28;20021;-62
2023/08/12 00:39:09;;;;;;;9.07;4.40;;;;;;;17.07;nan;101086.75;5017018;28;20537;-62
2023/08/12 00:41:34;;;;;;;7.20;4.40;;;;;;;17.12;nan;101103.59;5015464;28;20033;-64
2023/08/12 00:44:00;;;;;;;7.50;4.68;;;;;;;17.10;nan;101100.38;5017026;28;20079;-62
2023/08/12 00:46:25;;;;;;;7.65;4.50;;;;;;;17.05;nan;101095.03;5018849;28;20030;-63
2023/08/12 00:48:51;;;;;;;7.07;4.57;;;;;;;17.04;nan;101089.94;5017263;28;20022;-60
2023/08/12 00:51:17;;;;;;;9.75;4.90;;;;;;;16.98;nan;101091.75;5020224;28;20156;-61
2023/08/12 00:53:45;;;;;;;6.78;4.90;;;;;;;16.97;nan;101100.78;5030570;28;20065;-61
2023/08/12 00:56:10;;;;;;;9.32;5.20;;;;;;;16.93;nan;101095.16;5020153;28;20037;-61
2023/08/12 00:58:35;;;;;;;6.57;4.78;;;;;;;16.88;nan;101088.97;5019625;28;20068;-61
2023/08/12 01:01:01;;;;;;;7.47;4.97;;;;;;;16.83;nan;101096.88;5019249;28;20563;-62
2023/08/12 01:03:26;;;;;;;7.40;5.00;;;;;;;16.72;nan;101088.78;5014605;28;20021;-62
2023/08/12 01:05:52;;;;;;;8.65;4.85;;;;;;;16.67;nan;101082.59;5018811;28;20040;-62
2023/08/12 01:08:17;;;;;;;13.15;5.75;;;;;;;16.68;nan;101087.66;5014075;28;20136;-66
2023/08/12 01:10:52;;;;;;;6.93;4.63;;;;;;;16.67;nan;101088.72;5015329;28;20025;-61
2023/08/12 01:13:36;;;;;;;6.53;4.90;;;;;;;16.56;nan;101077.16;5016801;28;20641;-64
2023/08/12 01:16:05;;;;;;;6.25;4.70;;;;;;;16.62;nan;101087.84;5017855;28;20488;-62
2023/08/12 01:18:31;;;;;;;6.57;5.00;;;;;;;16.54;nan;101081.09;5015878;28;20026;-62
2023/08/12 01:20:58;;;;;;;8.25;4.97;;;;;;;16.55;nan;101078.22;5016546;28;20531;-62
2023/08/12 01:23:24;;;;;;;7.93;4.50;;;;;;;16.55;nan;101082.72;5013795;28;20104;-61
2023/08/12 01:25:49;;;;;;;9.02;5.25;;;;;;;16.54;nan;101084.59;5017158;28;20026;-62
2023/08/12 01:28:14;;;;;;;8.25;5.00;;;;;;;16.50;nan;101091.44;5013721;28;20034;-62
2023/08/12 01:30:51;;;;;;;7.85;5.00;;;;;;;16.49;nan;101087.16;5021341;28;20139;-62
2023/08/12 01:33:31;;;;;;;8.18;4.75;;;;;;;16.44;nan;101083.66;5018032;28;20025;-63
2023/08/12 01:36:17;;;;;;;8.50;4.95;;;;;;;16.41;nan;101092.13;5016973;28;20211;-65
2023/08/12 01:38:43;;;;;;;9.65;5.18;;;;;;;16.34;nan;101092.31;5014890;28;20030;-63
2023/08/12 01:41:10;;;;;;;7.30;5.20;;;;;;;16.33;nan;101091.50;5017941;28;20373;-63
2023/08/12 01:43:37;;;;;;;7.05;5.03;;;;;;;16.31;nan;101095.47;5014097;28;20026;-62
2023/08/12 01:46:03;;;;;;;6.78;5.05;;;;;;;16.28;nan;101087.97;5002549;28;20172;-62
2023/08/12 01:48:28;;;;;;;8.00;5.25;;;;;;;16.23;nan;101094.00;5016948;28;20037;-62
2023/08/12 01:50:53;;;;;;;6.63;4.88;;;;;;;16.21;nan;101093.47;5014516;28;20955;-62
2023/08/12 01:53:19;;;;;;;8.57;5.22;;;;;;;16.12;nan;101090.41;5016944;28;20033;-63
2023/08/12 01:55:45;;;;;;;8.27;5.43;;;;;;;16.14;nan;101090.19;5014314;28;20026;-62
2023/08/12 01:58:10;;;;;;;8.15;4.75;;;;;;;16.10;nan;101086.41;5016215;28;20025;-62
2023/08/12 02:00:36;;;;;;;9.18;4.80;;;;;;;16.05;nan;101086.34;5012556;28;20112;-62
2023/08/12 02:03:02;;;;;;;7.93;5.00;;;;;;;15.99;nan;101082.78;5015702;28;20048;-61
2023/08/12 02:05:27;;;;;;;7.85;5.68;;;;;;;15.99;nan;101082.78;5017180;28;20044;-63
2023/08/12 02:07:52;;;;;;;6.90;4.88;;;;;;;15.99;nan;101087.28;5016729;28;20670;-62
2023/08/12 02:10:18;;;;;;;7.18;4.78;;;;;;;15.90;nan;101085.06;5016558;28;20026;-69
2023/08/12 02:12:43;;;;;;;7.68;5.50;;;;;;;15.84;nan;101079.91;5014225;28;20044;-69
2023/08/12 02:15:09;;;;;;;11.60;5.30;;;;;;;15.82;nan;101080.16;5015718;28;20072;-68
2023/08/12 02:17:34;;;;;;;9.10;4.72;;;;;;;15.78;nan;101073.72;5015205;28;20025;-70
2023/08/12 02:20:00;;;;;;;8.38;5.00;;;;;;;15.79;nan;101083.28;5017525;28;20475;-70
2023/08/12 02:22:25;;;;;;;7.20;4.78;;;;;;;15.73;nan;101077.13;5018169;28;20125;-70
2023/08/12 02:24:50;;;;;;;8.88;5.22;;;;;;;15.73;nan;101092.25;5015269;28;20032;-70
2023/08/12 02:27:16;;;;;;;8.18;4.70;;;;;;;15.60;nan;101073.94;5014689;28;20500;-70
2023/08/12 02:29:41;;;;;;;6.53;5.13;;;;;;;15.62;nan;101080.63;5018432;28;20033;-69
2023/08/12 02:32:07;;;;;;;6.65;4.90;;;;;;;15.63;nan;101087.53;5022918;28;20041;-69
2023/08/12 02:34:32;;;;;;;10.18;4.82;;;;;;;15.59;nan;101085.63;5016559;28;20084;-69
2023/08/12 02:36:57;;;;;;;7.53;4.93;;;;;;;15.55;nan;101087.94;5013832;28;20057;-70
2023/08/12 02:39:23;;;;;;;7.35;5.18;;;;;;;15.58;nan;101098.06;5017611;28;20026;-69
2023/08/12 02:41:48;;;;;;;12.90;5.20;;;;;;;15.54;nan;101102.28;5016144;28;20033;-69
2023/08/12 02:44:14;;;;;;;11.25;5.22;;;;;;;15.52;nan;101102.50;5014463;28;20467;-70
2023/08/12 02:46:39;;;;;;;8.60;5.07;;;;;;;15.48;nan;101101.34;5016857;28;20022;-70
2023/08/12 02:49:05;;;;;;;7.60;5.10;;;;;;;15.39;nan;101097.47;5015293;28;20030;-70
2023/08/12 02:51:30;;;;;;;7.25;5.03;;;;;;;15.40;nan;101098.31;5016543;28;20053;-70
2023/08/12 02:53:55;;;;;;;7.65;5.32;;;;;;;15.34;nan;101091.28;5017049;28;20029;-70
2023/08/12 02:56:21;;;;;;;9.68;5.13;;;;;;;15.33;nan;101103.75;5017293;28;20067;-69
2023/08/12 02:58:47;;;;;;;7.35;5.40;;;;;;;15.26;nan;101093.28;5019763;28;20083;-69
2023/08/12 03:01:12;;;;;;;7.35;5.13;;;;;;;15.26;nan;101101.25;5016832;28;20542;-69
2023/08/12 03:03:38;;;;;;;10.60;5.20;;;;;;;15.23;nan;101101.75;5016171;28;20572;-69
2023/08/12 03:06:03;;;;;;;7.28;5.28;;;;;;;15.27;nan;101108.16;5012111;28;20030;-70
2023/08/12 03:08:29;;;;;;;11.27;6.25;;;;;;;15.26;nan;101106.56;5022049;28;20026;-69
2023/08/12 03:11:01;;;;;;;10.30;5.40;;;;;;;15.25;nan;101112.09;5016937;28;20672;-70
2023/08/12 03:13:28;;;;;;;9.25;5.63;;;;;;;15.26;nan;101111.88;5016686;28;20053;-69
2023/08/12 03:15:53;;;;;;;8.27;5.50;;;;;;;15.20;nan;101104.84;5016248;28;20029;-69
2023/08/12 03:18:19;;;;;;;8.52;5.63;;;;;;;15.19;nan;101107.75;5017020;28;20377;-69
2023/08/12 03:20:44;;;;;;;7.88;5.32;;;;;;;15.12;nan;101101.78;5013104;28;20060;-68
2023/08/12 03:23:09;;;;;;;7.45;5.35;;;;;;;15.16;nan;101117.00;5012495;28;20049;-70
2023/08/12 03:25:35;;;;;;;8.02;5.68;;;;;;;15.13;nan;101121.97;5011145;28;20044;-71
2023/08/12 03:28:00;;;;;;;8.50;6.20;;;;;;;15.07;nan;101111.25;5018994;28;20120;-72
2023/08/12 03:30:26;;;;;;;10.30;5.97;;;;;;;15.08;nan;101114.72;5013280;28;20252;-69
2023/08/12 03:32:52;;;;;;;8.80;6.38;;;;;;;15.06;nan;101125.56;5013390;28;20025;-71
2023/08/12 03:35:18;;;;;;;9.68;6.13;;;;;;;14.94;nan;101116.88;5013641;28;20053;-70
2023/08/12 03:37:46;;;;;;;8.63;6.18;;;;;;;14.96;nan;101122.72;5017666;28;20061;-70
2023/08/12 03:40:11;;;;;;;7.30;5.60;;;;;;;14.86;nan;101110.06;5018610;28;20025;-69
2023/08/12 03:42:37;;;;;;;9.40;6.60;;;;;;;14.94;nan;101126.63;5015553;28;20064;-71
2023/08/12 03:45:02;;;;;;;9.82;6.13;;;;;;;14.89;nan;101122.88;5017691;28;20519;-68
2023/08/12 03:47:28;;;;;;;10.48;6.22;;;;;;;14.85;nan;101124.38;5030989;28;20087;-68
2023/08/12 03:49:53;;;;;;;10.98;6.68;;;;;;;14.83;nan;101134.41;5024239;28;20060;-69
2023/08/12 03:52:18;;;;;;;9.82;6.65;;;;;;;14.83;nan;101130.94;5025135;28;20395;-69
2023/08/12 03:54:44;;;;;;;9.93;6.05;;;;;;;14.72;nan;101118.53;5018836;28;20032;-70
2023/08/12 03:57:10;;;;;;;11.70;6.68;;;;;;;14.51;nan;101086.28;5022215;28;20034;-63
2023/08/12 03:59:36;;;;;;;13.68;6.55;;;;;;;14.76;nan;101131.06;5020720;28;20108;-67
2023/08/12 04:02:01;;;;;;;12.20;6.05;;;;;;;14.71;nan;101128.31;5019258;28;20102;-67
2023/08/12 04:04:27;;;;;;;10.57;6.18;;;;;;;14.75;nan;101134.78;5021815;28;20032;-66
2023/08/12 04:06:53;;;;;;;8.50;5.90;;;;;;;14.74;nan;101137.66;5021900;28;20049;-63
2023/08/12 04:09:19;;;;;;;13.75;6.30;;;;;;;14.69;nan;101133.06;5028127;28;20029;-68
2023/08/12 04:11:45;;;;;;;15.32;6.63;;;;;;;14.70;nan;101136.50;5019053;28;20025;-68
2023/08/12 04:14:10;;;;;;;18.02;7.18;;;;;;;14.70;nan;101134.69;5020720;28;20499;-69
2023/08/12 04:16:36;;;;;;;11.32;9.38;;;;;;;14.72;nan;101139.72;5021365;28;20076;-63
2023/08/12 04:19:01;;;;;;;14.90;10.60;;;;;;;14.70;nan;101139.16;5019678;28;20018;-67
2023/08/12 04:21:28;;;;;;;14.65;11.73;;;;;;;14.77;nan;101145.13;5023376;28;20469;-63
2023/08/12 04:23:53;;;;;;;16.23;11.55;;;;;;;14.73;nan;101142.16;5020743;28;20132;-63
2023/08/12 04:26:19;;;;;;;12.00;8.80;;;;;;;14.77;nan;101143.31;5024105;28;20132;-69
2023/08/12 04:28:44;;;;;;;13.05;7.57;;;;;;;14.77;nan;101143.31;5019438;28;20480;-69
2023/08/12 04:31:10;;;;;;;10.57;6.85;;;;;;;14.82;nan;101148.72;5022458;28;20037;-69
2023/08/12 04:33:36;;;;;;;10.50;6.75;;;;;;;14.85;nan;101150.09;5022592;28;20053;-70
2023/08/12 04:36:01;;;;;;;12.20;6.82;;;;;;;14.86;nan;101147.19;5020669;28;20029;-69
2023/08/12 04:38:27;;;;;;;10.35;5.95;;;;;;;14.85;nan;101134.19;5019111;28;20464;-69
2023/08/12 04:40:53;;;;;;;13.38;6.25;;;;;;;14.91;nan;101149.13;5024654;28;20026;-69
2023/08/12 04:43:19;;;;;;;10.52;6.50;;;;;;;14.94;nan;101147.84;5020662;28;20072;-69
2023/08/12 04:45:46;;;;;;;17.67;6.82;;;;;;;14.96;nan;101148.44;5024396;28;20030;-68
2023/08/12 04:48:11;;;;;;;16.10;6.88;;;;;;;14.99;nan;101146.13;5022386;28;20041;-68
2023/08/12 04:50:38;;;;;;;10.52;6.28;;;;;;;15.09;nan;101161.44;5021577;28;20040;-70
2023/08/12 04:53:04;;;;;;;11.98;6.07;;;;;;;15.09;nan;101150.81;5022103;28;20504;-69
2023/08/12 04:55:30;;;;;;;13.88;6.15;;;;;;;15.15;nan;101151.72;5018198;28;20018;-70
2023/08/12 04:57:55;;;;;;;8.95;6.45;;;;;;;15.26;nan;101158.84;5019775;28;20022;-69
2023/08/12 05:00:22;;;;;;;8.82;6.53;;;;;;;15.29;nan;101147.72;5017003;28;20512;-64
2023/08/12 05:02:47;;;;;;;13.38;6.72;;;;;;;15.41;nan;101160.94;5020245;28;20029;-64
2023/08/12 05:05:13;;;;;;;10.13;5.95;;;;;;;15.36;nan;101142.28;5016068;28;20034;-70
2023/08/12 05:07:38;;;;;;;10.82;6.22;;;;;;;15.45;nan;101146.97;5016852;28;20052;-70
2023/08/12 05:10:04;;;;;;;12.07;6.80;;;;;;;15.60;nan;101158.91;5015318;28;20162;-67
2023/08/12 05:12:30;;;;;;;11.13;7.13;;;;;;;15.66;nan;101157.94;5016410;28;20033;-67
2023/08/12 05:14:55;;;;;;;11.88;6.78;;;;;;;15.73;nan;101154.13;5019241;28;20529;-68
2023/08/12 05:17:21;;;;;;;10.27;6.78;;;;;;;15.88;nan;101168.69;5015765;28;20076;-63
2023/08/12 05:19:46;;;;;;;11.32;6.18;;;;;;;15.91;nan;101154.91;5016171;28;20014;-68
2023/08/12 05:22:11;;;;;;;10.38;6.07;;;;;;;16.02;nan;101162.00;5019175;28;20149;-69
2023/08/12 05:24:37;;;;;;;12.32;7.07;;;;;;;16.01;nan;101157.72;5018520;28;20041;-68
2023/08/12 05:27:04;;;;;;;17.08;7.57;;;;;;;16.14;nan;101167.25;5016663;28;20334;-68
2023/08/12 05:29:29;;;;;;;11.90;7.35;;;;;;;16.21;nan;101153.75;5020320;28;20561;-67
2023/08/12 05:31:54;;;;;;;14.00;6.97;;;;;;;16.34;nan;101166.72;5015519;28;20091;-67
2023/08/12 05:34:20;;;;;;;13.55;6.22;;;;;;;16.36;nan;101162.78;5013248;28;20046;-64
2023/08/12 05:36:45;;;;;;;10.95;5.57;;;;;;;16.48;nan;101164.53;5017596;28;20030;-64
2023/08/12 05:39:11;;;;;;;12.60;6.20;;;;;;;16.56;nan;101164.09;5016893;28;20030;-66
2023/08/12 05:41:36;;;;;;;10.68;5.55;;;;;;;16.69;nan;101166.41;5023739;28;20018;-68
2023/08/12 05:44:02;;;;;;;13.30;5.38;;;;;;;16.86;nan;101174.34;5016300;28;20762;-68
2023/08/12 05:46:27;;;;;;;9.20;5.72;;;;;;;16.91;nan;101152.34;5015787;28;20034;-69
2023/08/12 05:48:52;;;;;;;9.10;5.07;;;;;;;17.00;nan;101156.16;5016809;28;20117;-65
2023/08/12 05:51:18;;;;;;;10.27;5.20;;;;;;;17.19;nan;101169.91;5013779;28;20537;-64
2023/08/12 05:53:43;;;;;;;9.07;4.85;;;;;;;17.27;nan;101160.72;5017532;28;20373;-68
2023/08/12 05:56:09;;;;;;;13.82;5.10;;;;;;;17.41;nan;101162.72;5016251;28;20036;-68
2023/08/12 05:58:34;;;;;;;8.20;4.90;;;;;;;17.53;nan;101165.22;5019683;28;20472;-69
2023/08/12 06:00:59;;;;;;;6.30;4.40;;;;;;;17.55;nan;101155.13;5015124;28;20116;-69
2023/08/12 06:03:25;;;;;;;7.50;4.65;;;;;;;17.62;nan;101160.22;5017817;28;20032;-69
2023/08/12 06:05:50;;;;;;;9.98;4.95;;;;;;;17.69;nan;101154.69;5014742;28;20044;-70
2023/08/12 06:08:16;;;;;;;9.48;4.53;;;;;;;17.74;nan;101149.41;5013813;28;20439;-69
2023/08/12 06:10:41;;;;;;;7.82;4.90;;;;;;;17.98;nan;101153.38;5016194;28;20021;-70
2023/08/12 06:13:07;;;;;;;6.50;4.30;;;;;;;18.04;nan;101159.53;5016799;28;20048;-69
2023/08/12 06:15:33;;;;;;;6.15;4.45;;;;;;;18.09;nan;101156.09;5016547;28;20048;-69
2023/08/12 06:17:59;;;;;;;10.65;4.68;;;;;;;18.14;nan;101151.59;5019300;28;20883;-68
2023/08/12 06:20:25;;;;;;;8.20;4.40;;;;;;;18.27;nan;101151.16;5017800;28;20550;-64
2023/08/12 06:22:51;;;;;;;6.32;4.57;;;;;;;18.40;nan;101165.88;5022437;28;20173;-70
2023/08/12 06:25:17;;;;;;;8.35;4.47;;;;;;;18.52;nan;101152.34;5013060;28;20404;-68
2023/08/12 06:27:43;;;;;;;7.22;4.10;;;;;;;18.66;nan;101155.34;5012005;28;20029;-68
2023/08/12 06:30:09;;;;;;;7.55;3.92;;;;;;;18.83;nan;101155.97;5013576;28;20072;-66
2023/08/12 06:32:35;;;;;;;7.78;3.67;;;;;;;18.90;nan;101151.19;5012681;28;20033;-67
2023/08/12 06:35:00;;;;;;;6.30;4.15;;;;;;;19.02;nan;101156.31;5013536;28;20095;-67
2023/08/12 06:37:26;;;;;;;9.02;3.78;;;;;;;18.91;nan;101115.47;5018628;28;20087;-68
2023/08/12 06:39:51;;;;;;;6.93;3.88;;;;;;;19.23;nan;101151.03;5014982;28;20240;-67
2023/08/12 06:42:16;;;;;;;5.80;3.58;;;;;;;19.30;nan;101155.03;5016545;28;20036;-68
2023/08/12 06:44:42;;;;;;;8.63;4.05;;;;;;;19.38;nan;101160.94;5014837;28;20676;-68
2023/08/12 06:47:07;;;;;;;7.55;3.90;;;;;;;19.44;nan;101151.84;5013499;28;20033;-69
2023/08/12 06:49:32;;;;;;;6.63;3.38;;;;;;;19.64;nan;101165.22;5016885;28;20014;-66
2023/08/12 06:51:58;;;;;;;9.48;3.30;;;;;;;19.70;nan;101150.00;5016254;28;20029;-66
2023/08/12 06:54:24;;;;;;;7.25;2.88;;;;;;;19.80;nan;101157.22;5012918;28;20040;-68
2023/08/12 06:56:50;;;;;;;7.57;4.90;;;;;;;19.92;nan;101155.06;5016649;28;20498;-68
2023/08/12 06:59:15;;;;;;;5.05;3.33;;;;;;;19.97;nan;101158.56;5015023;28;20064;-62
2023/08/12 07:01:41;;;;;;;6.53;4.00;;;;;;;20.03;nan;101153.22;5017610;28;20085;-66
2023/08/12 07:04:06;;;;;;;4.35;3.30;;;;;;;20.08;nan;101151.31;5015335;28;20095;-69
2023/08/12 07:06:32;;;;;;;6.53;3.10;;;;;;;20.17;nan;101156.94;5015979;28;20065;-69
2023/08/12 07:08:57;;;;;;;3.75;2.92;;;;;;;20.22;nan;101156.13;5015634;28;20052;-66
2023/08/12 07:11:23;;;;;;;5.10;3.30;;;;;;;20.29;nan;101151.28;5016167;28;20033;-69
2023/08/12 07:13:48;;;;;;;6.90;4.10;;;;;;;20.52;nan;101155.22;5016841;28;20053;-70
2023/08/12 07:16:13;;;;;;;5.45;3.67;;;;;;;20.69;nan;101155.75;5018107;28;20483;-70
2023/08/12 07:18:39;;;;;;;6.18;3.47;;;;;;;20.81;nan;101147.38;5014562;28;20018;-70
2023/08/12 07:21:04;;;;;;;4.50;3.55;;;;;;;20.84;nan;101151.41;5015316;28;20043;-68
2023/08/12 07:23:30;;;;;;;6.28;3.42;;;;;;;20.99;nan;101151.31;5019956;28;20052;-70
2023/08/12 07:25:56;;;;;;;7.00;3.03;;;;;;;21.03;nan;101144.31;5018133;28;20029;-70
2023/08/12 07:28:21;;;;;;;8.48;3.47;;;;;;;21.12;nan;101141.84;5016509;28;20096;-70
2023/08/12 07:30:49;;;;;;;4.75;3.35;;;;;;;21.25;nan;101152.75;5013256;28;20695;-66
2023/08/12 07:33:15;;;;;;;5.05;3.58;;;;;;;21.37;nan;101149.72;5015780;28;20028;-64
2023/08/12 07:35:41;;;;;;;8.95;3.30;;;;;;;21.49;nan;101149.41;5011608;28;20029;-66
2023/08/12 07:38:06;;;;;;;9.48;2.90;;;;;;;21.64;nan;101151.16;5014363;28;20097;-72
2023/08/12 07:40:31;;;;;;;5.75;2.92;;;;;;;21.75;nan;101159.94;5013077;28;20029;-66
2023/08/12 07:42:57;;;;;;;5.82;3.38;;;;;;;21.82;nan;101155.03;5013805;28;20116;-73
2023/08/12 07:45:23;;;;;;;6.03;2.95;;;;;;;21.83;nan;101157.41;5013069;28;20039;-71
2023/08/12 07:47:49;;;;;;;5.18;3.22;;;;;;;21.85;nan;101155.25;5014843;28;20036;-71
2023/08/12 07:50:15;;;;;;;6.25;3.22;;;;;;;21.89;nan;101142.09;5014373;28;20033;-68
2023/08/12 07:52:40;;;;;;;6.50;3.50;;;;;;;22.00;nan;101150.84;5016065;28;20033;-69
2023/08/12 07:55:06;;;;;;;4.93;3.00;;;;;;;22.16;nan;101144.25;5014430;28;20026;-70
2023/08/12 07:57:32;;;;;;;8.10;3.05;;;;;;;22.36;nan;101158.56;5015059;28;20530;-68
2023/08/12 07:59:57;;;;;;;4.15;2.55;;;;;;;22.40;nan;101155.00;5016540;28;20030;-68
2023/08/12 08:02:23;;;;;;;5.25;2.60;;;;;;;22.56;nan;101155.66;5013129;28;20034;-68
2023/08/12 08:04:49;;;;;;;4.50;2.22;;;;;;;22.65;nan;101153.09;5017032;28;20037;-68
2023/08/12 08:07:16;;;;;;;2.63;2.28;;;;;;;22.71;nan;101163.50;5014235;28;20038;-66
2023/08/12 08:09:42;;;;;;;8.07;2.65;;;;;;;22.69;nan;101154.94;5015282;28;20480;-70
2023/08/12 08:12:08;;;;;;;2.60;2.22;;;;;;;22.87;nan;101161.44;5014993;28;20029;-68
2023/08/12 08:14:34;;;;;;;4.22;2.42;;;;;;;22.92;nan;101139.88;5015630;28;20022;-68
2023/08/12 08:16:59;;;;;;;2.63;1.92;;;;;;;23.18;nan;101154.84;5011182;28;20098;-68
2023/08/12 08:19:24;;;;;;;4.47;2.17;;;;;;;23.15;nan;101148.16;5016995;28;20025;-68
2023/08/12 08:21:50;;;;;;;6.10;2.55;;;;;;;23.28;nan;101141.28;5015076;28;20127;-68
2023/08/12 08:24:15;;;;;;;5.35;2.10;;;;;;;23.26;nan;101133.50;5017481;28;20034;-69
2023/08/12 08:26:41;;;;;;;5.50;1.98;;;;;;;23.27;nan;101135.09;5016993;28;20076;-68
2023/08/12 08:29:06;;;;;;;5.15;2.08;;;;;;;23.47;nan;101142.03;5017004;28;20048;-68
2023/08/12 08:31:32;;;;;;;2.72;2.10;;;;;;;23.45;nan;101136.16;5021724;28;20021;-68
2023/08/12 08:33:57;;;;;;;4.57;1.95;;;;;;;23.50;nan;101146.03;5017350;28;20113;-68
2023/08/12 08:36:23;;;;;;;3.53;2.20;;;;;;;23.56;nan;101147.56;5017397;28;20399;-67
2023/08/12 08:38:48;;;;;;;4.00;2.10;;;;;;;23.64;nan;101152.25;5020389;28;20483;-67
2023/08/12 08:41:16;;;;;;;3.05;1.92;;;;;;;23.69;nan;101144.09;5015162;28;20026;-69
2023/08/12 08:43:43;;;;;;;4.30;1.92;;;;;;;23.85;nan;101154.59;5020619;28;20030;-67
2023/08/12 08:46:14;;;;;;;4.53;2.47;;;;;;;23.86;nan;101151.63;5020861;28;20029;-68
2023/08/12 08:48:40;;;;;;;3.47;2.17;;;;;;;23.87;nan;101137.09;5020645;28;20668;-68
2023/08/12 08:51:06;;;;;;;2.30;2.00;;;;;;;23.93;nan;101135.13;5017849;28;20025;-66
2023/08/12 08:53:37;;;;;;;2.97;1.90;;;;;;;24.06;nan;101133.53;5021337;28;20099;-73
2023/08/12 08:56:02;;;;;;;2.45;1.95;;;;;;;24.08;nan;101131.34;5017347;28;20582;-74
2023/08/12 08:58:28;;;;;;;8.05;4.03;;;;;;;24.04;nan;101116.88;5017891;28;20039;-73
2023/08/12 09:00:53;;;;;;;6.78;2.78;;;;;;;24.12;nan;101129.66;5019059;28;20117;-73
2023/08/12 09:03:20;;;;;;;2.75;1.60;;;;;;;24.10;nan;101123.78;5017199;28;20124;-73
2023/08/12 09:05:45;;;;;;;4.45;2.10;;;;;;;24.12;nan;101113.50;5021023;28;20028;-73
2023/08/12 09:08:12;;;;;;;3.05;2.35;;;;;;;24.24;nan;101118.41;5016283;28;20030;-72
2023/08/12 09:10:40;;;;;;;2.92;1.98;;;;;;;24.25;nan;101115.38;5014751;28;20141;-68
2023/08/12 09:13:06;;;;;;;3.58;2.10;;;;;;;24.35;nan;101119.78;5017422;28;20476;-68
2023/08/12 09:15:32;;;;;;;5.00;2.38;;;;;;;24.47;nan;101114.72;5016501;28;20084;-72
2023/08/12 09:17:57;;;;;;;6.53;2.20;;;;;;;24.50;nan;101116.03;5017625;28;20042;-69
2023/08/12 09:20:23;;;;;;;2.88;1.83;;;;;;;24.55;nan;101118.59;5010864;28;20031;-69
2023/08/12 09:22:56;;;;;;;4.63;2.30;;;;;;;24.49;nan;101117.91;5012211;28;20060;-73
2023/08/12 09:25:23;;;;;;;5.25;2.35;;;;;;;24.50;nan;101116.81;5015713;28;20045;-70
2023/08/12 09:27:48;;;;;;;8.43;1.88;;;;;;;24.58;nan;101113.41;5015305;28;20034;-67
2023/08/12 09:30:14;;;;;;;5.55;1.80;;;;;;;24.62;nan;101119.00;5012475;28;20083;-71
2023/08/12 09:32:40;;;;;;;3.72;1.95;;;;;;;24.66;nan;101111.09;5014630;28;20372;-71
2023/08/12 09:35:06;;;;;;;3.53;1.80;;;;;;;24.84;nan;101113.66;5018107;28;20056;-72
2023/08/12 09:37:31;;;;;;;6.15;2.15;;;;;;;24.88;nan;101102.25;5018358;28;20028;-71
2023/08/12 09:39:58;;;;;;;6.50;1.80;;;;;;;24.92;nan;101103.25;5016839;28;20395;-71
2023/08/12 09:42:23;;;;;;;3.30;2.03;;;;;;;24.98;nan;101099.34;5019318;28;20022;-71
2023/08/12 09:44:49;;;;;;;4.85;1.80;;;;;;;25.02;nan;101103.00;5014833;28;20083;-71
2023/08/12 09:47:14;;;;;;;2.80;1.90;;;;;;;25.09;nan;101097.19;5018281;28;20035;-70
2023/08/12 09:49:40;;;;;;;4.57;2.00;;;;;;;25.14;nan;101097.06;5020546;28;20047;-70
2023/08/12 09:52:07;;;;;;;2.63;2.03;;;;;;;25.16;nan;101092.19;5018282;28;20079;-70
2023/08/12 09:54:37;;;;;;;2.88;2.10;;;;;;;25.15;nan;101091.38;5015866;28;20493;-70
2023/08/12 09:57:06;;;;;;;4.43;2.15;;;;;;;25.13;nan;101082.81;5018868;28;20032;-71
2023/08/12 09:59:35;;;;;;;4.40;1.60;;;;;;;25.11;nan;101082.31;5015555;28;20061;-70
2023/08/12 10:02:04;;;;;;;2.38;1.92;;;;;;;25.19;nan;101084.31;5018156;28;20505;-70
2023/08/12 10:04:37;;;;;;;3.05;2.30;;;;;;;25.35;nan;101086.63;5011660;28;20030;-66
2023/08/12 10:07:04;;;;;;;2.10;1.70;;;;;;;25.32;nan;101092.63;5018163;28;20030;-70
2023/08/12 10:09:32;;;;;;;5.00;1.92;;;;;;;25.26;nan;101083.91;5018814;28;20026;-69
2023/08/12 10:11:58;;;;;;;3.75;2.13;;;;;;;25.29;nan;101085.19;5016350;28;20037;-70
2023/08/12 10:14:25;;;;;;;5.45;1.42;;;;;;;25.33;nan;101089.66;5013529;28;20124;-67
2023/08/12 10:16:51;;;;;;;3.72;2.03;;;;;;;25.36;nan;101082.84;5017668;28;20029;-67
2023/08/12 10:19:18;;;;;;;4.78;1.98;;;;;;;25.41;nan;101085.41;5021579;28;20498;-67
2023/08/12 10:21:44;;;;;;;3.47;2.10;;;;;;;25.44;nan;101084.78;5017253;28;20396;-72
2023/08/12 10:24:11;;;;;;;3.83;2.00;;;;;;;25.49;nan;101091.94;5014964;28;20681;-72
2023/08/12 10:26:38;;;;;;;4.25;2.08;;;;;;;25.51;nan;101077.06;5014887;28;20022;-66
2023/08/12 10:29:04;;;;;;;7.40;2.10;;;;;;;25.57;nan;101066.91;5014763;28;20029;-68
2023/08/12 10:31:29;;;;;;;3.58;1.70;;;;;;;25.58;nan;101074.72;5019313;28;20080;-70
2023/08/12 10:33:57;;;;;;;3.95;1.70;;;;;;;25.56;nan;101073.44;5020395;28;20435;-71
2023/08/12 10:36:25;;;;;;;2.28;1.60;;;;;;;25.54;nan;101073.72;5011468;28;20040;-69
2023/08/12 10:38:51;;;;;;;3.13;1.55;;;;;;;25.55;nan;101072.63;5014964;28;20305;-66
2023/08/12 10:41:21;;;;;;;1.88;1.65;;;;;;;25.59;nan;101070.09;5014042;28;20726;-66
2023/08/12 10:43:56;;;;;;;2.85;1.80;;;;;;;25.63;nan;101065.69;5015928;28;20076;-66
2023/08/12 10:46:35;;;;;;;3.08;1.95;;;;;;;25.62;nan;101059.50;5012750;28;20120;-68
2023/08/12 10:49:07;;;;;;;2.72;1.50;;;;;;;25.72;nan;101057.66;5015939;28;20068;-67
2023/08/12 10:51:46;;;;;;;3.35;1.80;;;;;;;25.75;nan;101059.72;5015939;28;20029;-69
2023/08/12 10:54:26;;;;;;;1.90;1.52;;;;;;;25.72;nan;101042.25;5012132;28;20044;-71
2023/08/12 10:57:02;;;;;;;2.80;1.70;;;;;;;25.89;nan;101055.03;5014264;28;20022;-68
2023/08/12 10:59:46;;;;;;;3.03;1.80;;;;;;;25.93;nan;101053.31;5015171;28;20041;-68
2023/08/12 11:02:18;;;;;;;2.65;1.60;;;;;;;25.96;nan;101049.19;5015115;28;20029;-68
2023/08/12 11:04:44;;;;;;;2.97;1.63;;;;;;;25.88;nan;101037.25;5015736;28;20033;-67
2023/08/12 11:07:18;;;;;;;2.80;1.55;;;;;;;25.89;nan;101045.03;5013852;28;20103;-66
2023/08/12 11:09:45;;;;;;;2.67;1.65;;;;;;;25.97;nan;101048.06;5014016;28;20235;-68
2023/08/12 11:12:11;;;;;;;4.85;1.45;;;;;;;25.97;nan;101051.56;5022066;28;20495;-67
2023/08/12 11:14:58;;;;;;;3.30;1.80;;;;;;;26.00;nan;101052.84;5014368;28;20025;-67
2023/08/12 11:17:34;;;;;;;3.50;1.60;;;;;;;26.02;nan;101054.13;5015443;28;20030;-66
2023/08/12 11:20:01;;;;;;;2.25;1.58;;;;;;;26.00;nan;101044.75;5013975;28;20052;-69
2023/08/12 11:22:27;;;;;;;2.08;1.73;;;;;;;26.11;nan;101048.75;5012062;28;20085;-68
2023/08/12 11:24:53;;;;;;;4.45;1.90;;;;;;;26.14;nan;101036.53;5016556;28;20084;-68
2023/08/12 11:27:18;;;;;;;2.03;1.55;;;;;;;26.18;nan;101032.09;5015127;28;20030;-68
2023/08/12 11:29:44;;;;;;;4.85;1.60;;;;;;;26.28;nan;101034.50;5015103;28;20068;-68
2023/08/12 11:32:09;;;;;;;4.88;2.13;;;;;;;26.26;nan;101028.59;5015119;28;20092;-70
2023/08/12 11:34:35;;;;;;;4.57;2.35;;;;;;;26.28;nan;101031.78;5015962;28;20511;-70